Time;durP1;ratioP1;P1;durP2;ratioP2;P2;SDS_P1;SDS_P2;PMS_P1;PMS_P2;Temp;Humidity;BMP_temperature;BMP_pressure;BME280_temperature;BME280_humidity;BME280_pressure;Samples;Min_cycle;Max_cycle;Signal;HPM_P1;HPM_P2
2022/08/14 00:00:27;;;;;;;11.38;8.77;;;18.50;99.90;;;;;;5016725;28;20220;-66
2022/08/14 00:02:54;;;;;;;12.13;8.85;;;18.70;99.90;;;;;;5033114;28;20214;-65
2022/08/14 00:05:22;;;;;;;11.60;9.25;;;18.30;99.90;;;;;;5022800;28;20651;-65
2022/08/14 00:07:51;;;;;;;14.85;8.77;;;18.30;99.90;;;;;;5024270;28;20596;-65
2022/08/14 00:10:21;;;;;;;10.70;9.57;;;18.30;99.90;;;;;;5033340;28;20200;-65
2022/08/14 00:12:51;;;;;;;13.15;9.63;;;18.30;99.90;;;;;;5032218;28;20718;-65
2022/08/14 00:15:20;;;;;;;12.93;9.38;;;18.30;99.90;;;;;;5030389;28;20200;-66
2022/08/14 00:17:47;;;;;;;12.52;9.20;;;18.10;99.90;;;;;;5026900;28;20200;-66
2022/08/14 00:20:15;;;;;;;10.80;9.10;;;18.20;99.90;;;;;;5028780;28;20223;-66
2022/08/14 00:22:42;;;;;;;10.48;8.77;;;18.30;99.90;;;;;;5031665;28;20199;-66
2022/08/14 00:25:10;;;;;;;13.82;9.27;;;18.30;99.90;;;;;;5032473;28;20196;-66
2022/08/14 00:27:37;;;;;;;13.05;9.73;;;18.20;99.90;;;;;;5032568;28;20212;-66
2022/08/14 00:30:07;;;;;;;10.57;9.43;;;18.20;99.90;;;;;;5030605;28;20207;-66
2022/08/14 00:32:34;;;;;;;11.15;9.45;;;18.20;99.90;;;;;;5033034;28;20222;-66
2022/08/14 00:35:01;;;;;;;13.20;9.40;;;18.10;99.90;;;;;;5029630;28;20208;-66
2022/08/14 00:37:28;;;;;;;13.00;9.45;;;18.20;99.90;;;;;;5028823;28;20207;-66
2022/08/14 00:39:55;;;;;;;11.15;9.43;;;18.30;99.90;;;;;;5031920;28;20206;-66
2022/08/14 00:42:24;;;;;;;10.68;9.30;;;18.40;99.90;;;;;;5023220;28;20200;-66
2022/08/14 00:44:52;;;;;;;11.35;9.43;;;18.20;99.90;;;;;;5024019;28;20576;-66
2022/08/14 00:47:22;;;;;;;11.35;9.25;;;18.30;99.90;;;;;;5031761;28;20314;-66
2022/08/14 00:49:49;;;;;;;12.32;8.43;;;18.10;99.90;;;;;;5020096;28;20208;-66
2022/08/14 00:52:16;;;;;;;12.23;9.07;;;18.20;99.90;;;;;;5032451;28;20682;-66
2022/08/14 00:54:45;;;;;;;11.32;9.63;;;18.40;99.90;;;;;;5020955;28;20204;-66
2022/08/14 00:57:13;;;;;;;11.80;9.30;;;18.30;99.90;;;;;;5025629;28;20674;-66
2022/08/14 00:59:41;;;;;;;11.48;9.52;;;18.20;99.90;;;;;;5016159;28;20219;-66
2022/08/14 01:02:08;;;;;;;12.10;9.35;;;18.20;99.90;;;;;;5030352;28;20224;-66
2022/08/14 01:04:36;;;;;;;12.65;9.85;;;18.10;99.90;;;;;;5017214;28;20215;-66
2022/08/14 01:07:03;;;;;;;10.88;8.80;;;18.10;99.90;;;;;;5026923;28;20227;-66
2022/08/14 01:09:31;;;;;;;16.33;10.55;;;18.10;99.90;;;;;;5028846;28;20204;-66
2022/08/14 01:11:58;;;;;;;13.82;9.93;;;18.10;99.90;;;;;;5025934;28;20211;-66
2022/08/14 01:14:25;;;;;;;12.27;9.82;;;18.20;99.90;;;;;;5030973;28;20210;-66
2022/08/14 01:16:54;;;;;;;14.13;10.27;;;18.20;99.90;;;;;;5030133;28;20673;-66
2022/08/14 01:22:07;;;;;;;12.55;9.43;;;17.10;99.90;;;;;;5026193;28;20191;-66
2022/08/14 01:24:35;;;;;;;12.30;9.88;;;17.40;99.90;;;;;;5031222;28;20763;-66
2022/08/14 01:27:04;;;;;;;13.98;10.18;;;17.70;99.90;;;;;;5025865;28;20207;-66
2022/08/14 01:29:36;;;;;;;13.40;10.27;;;17.70;99.90;;;;;;5031323;28;20208;-66
2022/08/14 01:32:04;;;;;;;13.02;9.32;;;17.90;99.90;;;;;;5028837;28;20215;-66
2022/08/14 01:34:31;;;;;;;14.88;10.77;;;18.00;99.90;;;;;;5029186;28;20231;-66
2022/08/14 01:36:59;;;;;;;14.00;10.10;;;18.10;99.90;;;;;;5030857;28;20239;-66
2022/08/14 01:39:27;;;;;;;13.25;10.07;;;17.30;99.90;;;;;;5023480;28;20199;-66
2022/08/14 01:41:56;;;;;;;11.60;9.80;;;17.10;99.90;;;;;;5031100;28;20620;-66
2022/08/14 01:44:25;;;;;;;13.32;9.43;;;17.20;99.90;;;;;;5031460;28;20262;-66
2022/08/14 01:46:54;;;;;;;13.73;9.75;;;17.40;99.90;;;;;;5030250;28;20665;-66
2022/08/14 01:49:23;;;;;;;13.45;10.13;;;17.50;99.90;;;;;;5031216;28;20220;-66
2022/08/14 01:51:53;;;;;;;14.45;10.25;;;17.50;99.90;;;;;;5032474;28;20212;-66
2022/08/14 01:54:20;;;;;;;15.80;11.35;;;17.00;99.90;;;;;;5035043;28;20241;-66
2022/08/14 01:56:51;;;;;;;13.85;10.40;;;17.20;99.90;;;;;;5032852;28;21660;-66
2022/08/14 01:59:23;;;;;;;14.23;11.13;;;17.10;99.90;;;;;;5034020;28;20564;-66
2022/08/14 02:01:51;;;;;;;14.05;10.85;;;16.90;99.90;;;;;;5029140;28;20203;-66
2022/08/14 02:04:19;;;;;;;13.43;10.55;;;17.10;99.90;;;;;;5035332;28;20200;-66
2022/08/14 02:06:46;;;;;;;13.98;10.95;;;16.90;99.90;;;;;;5033904;28;20207;-66
2022/08/14 02:09:13;;;;;;;12.27;10.18;;;17.10;99.90;;;;;;5035114;28;20220;-66
2022/08/14 02:11:40;;;;;;;14.88;10.63;;;17.20;99.90;;;;;;5034105;28;20204;-66
2022/08/14 02:14:10;;;;;;;13.57;10.27;;;17.30;99.90;;;;;;5035330;28;20500;-66
2022/08/14 02:16:40;;;;;;;12.98;9.77;;;17.40;99.90;;;;;;5034151;28;20215;-66
2022/08/14 02:19:10;;;;;;;11.27;9.93;;;17.40;99.90;;;;;;5033978;28;20196;-66
2022/08/14 02:21:37;;;;;;;13.05;10.43;;;17.40;99.90;;;;;;5032765;28;20203;-66
2022/08/14 02:24:05;;;;;;;12.55;10.32;;;17.20;99.90;;;;;;5034977;28;20200;-66
2022/08/14 02:26:35;;;;;;;13.77;10.27;;;17.20;99.90;;;;;;5034163;28;20214;-66
2022/08/14 02:29:05;;;;;;;11.68;9.45;;;17.40;99.90;;;;;;5033880;28;20230;-66
2022/08/14 02:31:36;;;;;;;11.38;10.18;;;17.60;99.90;;;;;;5033742;28;20635;-66
2022/08/14 02:34:05;;;;;;;16.00;10.60;;;17.50;99.90;;;;;;5034802;28;20670;-66
2022/08/14 02:36:32;;;;;;;11.60;9.73;;;17.50;99.90;;;;;;5034257;28;20196;-67
2022/08/14 02:38:59;;;;;;;11.05;9.57;;;17.30;99.90;;;;;;5033661;28;20207;-66
2022/08/14 02:41:26;;;;;;;19.25;14.75;;;17.60;99.90;;;;;;5033279;28;20202;-66
2022/08/14 02:43:53;;;;;;;15.65;12.48;;;17.60;99.90;;;;;;5033366;28;20228;-66
2022/08/14 02:46:20;;;;;;;13.35;10.90;;;17.60;99.90;;;;;;5034706;28;20577;-66
2022/08/14 02:48:49;;;;;;;15.60;11.75;;;17.40;99.90;;;;;;5033492;28;20219;-66
2022/08/14 02:51:15;;;;;;;14.43;12.00;;;17.30;99.90;;;;;;5027453;28;20592;-66
2022/08/14 02:53:45;;;;;;;11.70;10.18;;;17.10;99.90;;;;;;5034335;28;20199;-66
2022/08/14 02:56:14;;;;;;;12.68;11.07;;;16.50;99.90;;;;;;5033708;28;20292;-66
2022/08/14 02:58:45;;;;;;;14.10;10.98;;;16.60;99.90;;;;;;5033339;28;20253;-69
2022/08/14 03:01:14;;;;;;;14.10;10.35;;;16.90;99.90;;;;;;5033084;28;20212;-66
2022/08/14 03:03:41;;;;;;;12.00;9.95;;;17.00;99.90;;;;;;5032988;28;20266;-66
2022/08/14 03:06:10;;;;;;;12.00;10.13;;;16.80;99.90;;;;;;5020101;28;20253;-66
2022/08/14 03:08:39;;;;;;;13.05;10.10;;;16.50;99.90;;;;;;5032773;28;20227;-66
2022/08/14 03:11:08;;;;;;;14.70;11.15;;;16.60;99.90;;;;;;5033891;28;20198;-66
2022/08/14 03:13:35;;;;;;;16.38;11.05;;;16.80;99.90;;;;;;5033365;28;20658;-66
2022/08/14 03:16:03;;;;;;;13.30;10.82;;;16.80;99.90;;;;;;5033227;28;20196;-66
2022/08/14 03:18:30;;;;;;;12.00;9.43;;;16.90;99.90;;;;;;5032824;28;20475;-66
2022/08/14 03:20:58;;;;;;;12.02;9.43;;;16.40;99.90;;;;;;5027120;28;20199;-66
2022/08/14 03:23:26;;;;;;;14.98;10.98;;;16.10;99.90;;;;;;5025877;28;20701;-66
2022/08/14 03:25:53;;;;;;;16.50;10.75;;;16.10;99.90;;;;;;5032594;28;20676;-66
2022/08/14 03:28:25;;;;;;;14.93;10.45;;;16.30;99.90;;;;;;5027790;28;20227;-66
2022/08/14 03:30:52;;;;;;;14.00;11.23;;;16.30;99.90;;;;;;5032797;28;20200;-66
2022/08/14 03:33:19;;;;;;;15.88;11.65;;;16.50;99.90;;;;;;5033558;28;20203;-66
2022/08/14 03:35:46;;;;;;;15.23;11.23;;;16.60;99.90;;;;;;5020389;28;20575;-66
2022/08/14 03:38:16;;;;;;;14.73;10.85;;;16.70;99.90;;;;;;5032196;28;20199;-66
2022/08/14 03:40:45;;;;;;;14.13;10.80;;;16.40;99.90;;;;;;5031835;28;20649;-66
2022/08/14 03:43:13;;;;;;;15.70;11.18;;;16.50;99.90;;;;;;5033535;28;20291;-66
2022/08/14 03:45:41;;;;;;;15.15;11.23;;;16.60;99.90;;;;;;5032204;28;20208;-66
2022/08/14 03:48:17;;;;;;;15.02;11.10;;;16.70;99.90;;;;;;5032475;28;21028;-66
2022/08/14 03:50:44;;;;;;;14.07;11.20;;;16.60;99.90;;;;;;5030799;28;20211;-66
2022/08/14 03:53:12;;;;;;;13.57;11.10;;;16.50;99.90;;;;;;5025211;28;20650;-66
2022/08/14 03:55:39;;;;;;;14.18;11.05;;;16.50;99.90;;;;;;5031913;28;20196;-66
2022/08/14 03:58:08;;;;;;;14.20;11.15;;;16.40;99.90;;;;;;5031936;28;20192;-66
2022/08/14 04:00:36;;;;;;;13.80;11.45;;;16.40;99.90;;;;;;5031445;28;20207;-66
2022/08/14 04:03:05;;;;;;;15.02;11.43;;;16.50;99.90;;;;;;5033234;28;20733;-66
2022/08/14 04:05:32;;;;;;;15.77;11.80;;;16.40;99.90;;;;;;5024568;28;20251;-66
2022/08/14 04:07:59;;;;;;;14.00;11.43;;;16.30;99.90;;;;;;5030701;28;20214;-66
2022/08/14 04:10:27;;;;;;;15.27;11.23;;;16.20;99.90;;;;;;5032783;28;20203;-66
2022/08/14 04:12:58;;;;;;;13.05;11.20;;;16.20;99.90;;;;;;5033394;28;20215;-66
2022/08/14 04:15:26;;;;;;;13.48;10.85;;;16.20;99.90;;;;;;5031793;28;20253;-66
2022/08/14 04:17:53;;;;;;;15.90;10.40;;;16.50;99.90;;;;;;5033304;28;20579;-66
2022/08/14 04:20:21;;;;;;;14.68;10.93;;;16.50;99.90;;;;;;5030395;28;20621;-66
2022/08/14 04:22:50;;;;;;;16.60;10.73;;;16.60;99.90;;;;;;5032155;28;20230;-66
2022/08/14 04:25:18;;;;;;;14.73;11.07;;;16.10;99.90;;;;;;5032126;28;20643;-66
2022/08/14 04:27:45;;;;;;;14.95;10.82;;;15.90;99.90;;;;;;5030632;28;20243;-66
2022/08/14 04:30:12;;;;;;;14.95;10.77;;;16.10;99.90;;;;;;5032276;28;20215;-66
2022/08/14 04:32:40;;;;;;;15.70;11.07;;;16.10;99.90;;;;;;5029955;28;20230;-66
2022/08/14 04:35:08;;;;;;;14.30;11.43;;;16.20;99.90;;;;;;5024875;28;20211;-65
2022/08/14 04:45:47;;;;;;;13.63;11.18;;;15.90;99.90;;;;;;5032070;28;20203;-65
2022/08/14 04:48:19;;;;;;;14.80;11.50;;;16.00;99.90;;;;;;5032174;28;20211;-65
2022/08/14 04:50:48;;;;;;;15.77;12.23;;;16.30;99.90;;;;;;5023532;28;20204;-65
2022/08/14 04:53:17;;;;;;;15.75;11.20;;;16.60;99.90;;;;;;5029462;28;20192;-65
2022/08/14 04:55:47;;;;;;;14.30;10.88;;;16.80;99.90;;;;;;5023694;28;20203;-65
2022/08/14 04:58:14;;;;;;;16.52;12.70;;;16.90;99.90;;;;;;5030367;28;20291;-66
2022/08/14 05:00:41;;;;;;;20.17;15.40;;;17.20;99.90;;;;;;5024657;28;20299;-66
2022/08/14 05:03:07;;;;;;;15.38;12.20;;;17.30;99.90;;;;;;5029392;28;20204;-65
2022/08/14 05:05:36;;;;;;;15.88;11.05;;;17.30;99.90;;;;;;5029399;28;20665;-65
2022/08/14 05:08:11;;;;;;;20.23;14.57;;;17.30;99.90;;;;;;5024970;28;20219;-65
2022/08/14 05:10:40;;;;;;;13.93;11.75;;;17.40;99.90;;;;;;5029651;28;20222;-65
2022/08/14 05:13:07;;;;;;;14.57;12.05;;;17.30;99.90;;;;;;5026432;28;20206;-65
2022/08/14 05:15:35;;;;;;;18.23;12.50;;;17.50;99.90;;;;;;5022437;28;20246;-65
2022/08/14 05:18:04;;;;;;;15.38;12.13;;;17.80;99.90;;;;;;5025575;28;20232;-65
2022/08/14 05:20:32;;;;;;;18.52;12.55;;;17.90;99.90;;;;;;5027097;28;20210;-65
2022/08/14 05:23:01;;;;;;;15.88;11.95;;;18.10;99.90;;;;;;5027270;28;20215;-65
2022/08/14 05:25:27;;;;;;;15.63;12.27;;;18.30;99.90;;;;;;5032592;28;20198;-65
2022/08/14 05:27:55;;;;;;;13.48;12.05;;;18.30;99.90;;;;;;5031344;28;20658;-65
2022/08/14 05:30:22;;;;;;;18.13;12.82;;;18.40;99.90;;;;;;5033594;28;20250;-65
2022/08/14 05:32:49;;;;;;;14.15;12.32;;;18.50;99.90;;;;;;5032011;28;20257;-65
2022/08/14 05:35:15;;;;;;;16.77;11.45;;;18.60;99.90;;;;;;5034552;28;20626;-66
2022/08/14 05:37:42;;;;;;;13.90;11.18;;;18.70;99.90;;;;;;5034499;28;20196;-66
2022/08/14 05:40:11;;;;;;;13.90;11.48;;;18.80;99.90;;;;;;5033499;28;20415;-66
2022/08/14 05:42:38;;;;;;;12.80;10.50;;;18.90;99.90;;;;;;5033362;28;20207;-65
2022/08/14 05:45:07;;;;;;;16.27;11.90;;;18.90;99.90;;;;;;5032127;28;20661;-65
2022/08/14 05:47:39;;;;;;;14.40;10.32;;;18.80;99.90;;;;;;5032899;28;20196;-65
2022/08/14 05:50:12;;;;;;;16.77;10.85;;;18.90;99.90;;;;;;5033297;28;20591;-67
2022/08/14 05:52:39;;;;;;;19.45;12.00;;;19.10;99.90;;;;;;5033901;28;20210;-67
2022/08/14 05:55:09;;;;;;;12.88;10.55;;;19.20;99.90;;;;;;5033359;28;20342;-67
2022/08/14 05:57:48;;;;;;;15.10;10.30;;;19.40;99.90;;;;;;5025337;28;20204;-67
2022/08/14 06:00:17;;;;;;;11.10;10.00;;;19.60;99.90;;;;;;5023619;28;20206;-67
2022/08/14 06:02:44;;;;;;;14.00;11.65;;;19.50;99.90;;;;;;5023510;28;20195;-67
2022/08/14 06:05:11;;;;;;;12.93;11.55;;;19.70;99.90;;;;;;5034397;28;20203;-67
2022/08/14 06:07:38;;;;;;;13.75;12.20;;;19.90;99.90;;;;;;5025522;28;20204;-67
2022/08/14 06:10:08;;;;;;;13.50;11.50;;;19.90;99.90;;;;;;5031011;28;20215;-67
2022/08/14 06:12:35;;;;;;;12.05;10.80;;;20.10;99.90;;;;;;5020369;28;20209;-67
2022/08/14 06:15:04;;;;;;;11.95;10.38;;;20.30;99.90;;;;;;5029122;28;20208;-67
2022/08/14 06:17:31;;;;;;;14.27;10.70;;;20.50;99.90;;;;;;5018573;28;20209;-67
2022/08/14 06:19:59;;;;;;;14.05;10.48;;;20.60;99.90;;;;;;5025126;28;20647;-67
2022/08/14 06:22:26;;;;;;;13.23;10.55;;;20.70;99.90;;;;;;5020272;28;20630;-67
2022/08/14 06:24:53;;;;;;;13.20;10.30;;;20.80;99.90;;;;;;5023019;28;20204;-67
2022/08/14 06:27:19;;;;;;;11.95;10.05;;;20.80;99.90;;;;;;5017396;28;20204;-67
2022/08/14 06:29:46;;;;;;;13.73;10.88;;;21.00;99.90;;;;;;5024182;28;20230;-67
2022/08/14 06:32:15;;;;;;;12.95;10.73;;;21.20;99.90;;;;;;5027916;28;20203;-67
2022/08/14 06:34:42;;;;;;;15.85;11.35;;;21.20;99.90;;;;;;5022155;28;20208;-67
2022/08/14 06:37:08;;;;;;;12.88;9.98;;;21.40;99.90;;;;;;5024926;28;20549;-66
2022/08/14 06:39:35;;;;;;;19.95;12.77;;;21.50;99.90;;;;;;5025840;28;20203;-67
2022/08/14 06:42:02;;;;;;;15.55;10.63;;;21.60;99.90;;;;;;5030382;28;20195;-67
2022/08/14 06:44:29;;;;;;;15.20;11.18;;;21.60;99.90;;;;;;5032326;28;20286;-67
2022/08/14 06:46:56;;;;;;;13.45;10.20;;;21.80;99.90;;;;;;5027191;28;20204;-67
2022/08/14 06:49:25;;;;;;;10.20;9.20;;;22.00;99.90;;;;;;5029474;28;20282;-67
2022/08/14 06:51:53;;;;;;;11.48;9.73;;;23.00;99.90;;;;;;5029517;28;20588;-67
2022/08/14 06:54:19;;;;;;;12.32;9.32;;;22.70;99.90;;;;;;5026616;28;20286;-67
2022/08/14 06:56:46;;;;;;;11.00;9.80;;;22.80;99.90;;;;;;5025586;28;20211;-67
2022/08/14 06:59:14;;;;;;;11.05;9.75;;;23.00;99.90;;;;;;5022177;28;20224;-67
2022/08/14 07:07:11;;;;;;;11.02;9.55;;;22.70;99.90;;;;;;5025637;28;20206;-67
2022/08/14 07:09:38;;;;;;;13.57;10.13;;;23.20;99.90;;;;;;5024624;28;20563;-67
2022/08/14 07:12:05;;;;;;;11.30;9.38;;;23.00;99.90;;;;;;5030448;28;20210;-67
2022/08/14 07:14:32;;;;;;;10.65;9.52;;;23.30;99.90;;;;;;5023456;28;20200;-67
2022/08/14 07:16:59;;;;;;;12.75;9.55;;;23.60;99.90;;;;;;5024313;28;20204;-67
2022/08/14 07:19:27;;;;;;;10.40;9.07;;;23.70;99.90;;;;;;5027510;28;20737;-67
2022/08/14 07:21:54;;;;;;;13.57;9.82;;;23.60;99.90;;;;;;5020457;28;20208;-67
2022/08/14 07:24:20;;;;;;;13.93;9.57;;;23.70;99.90;;;;;;5023540;28;20655;-67
2022/08/14 07:26:47;;;;;;;10.63;9.52;;;23.70;99.90;;;;;;5022598;28;20219;-67
2022/08/14 07:29:14;;;;;;;11.00;9.27;;;23.80;99.90;;;;;;5025697;28;20243;-67
2022/08/14 07:31:41;;;;;;;11.40;9.20;;;23.80;99.90;;;;;;5022395;28;20644;-67
2022/08/14 07:34:08;;;;;;;13.07;9.32;;;24.10;99.90;;;;;;5025025;28;20211;-67
2022/08/14 07:36:36;;;;;;;10.38;9.38;;;24.40;99.90;;;;;;5024839;28;20208;-67
2022/08/14 07:39:03;;;;;;;10.65;9.55;;;24.00;99.90;;;;;;5023371;28;20569;-67
2022/08/14 07:41:30;;;;;;;12.77;9.25;;;24.00;99.90;;;;;;5017220;28;20251;-67
2022/08/14 07:43:57;;;;;;;10.38;9.30;;;24.00;99.90;;;;;;5022148;28;20665;-68
2022/08/14 07:46:24;;;;;;;11.13;8.93;;;24.10;99.90;;;;;;5030040;28;20199;-67
2022/08/14 07:48:51;;;;;;;10.32;9.23;;;24.20;99.90;;;;;;5021235;28;20662;-67
2022/08/14 07:51:19;;;;;;;11.70;9.60;;;24.30;99.90;;;;;;5024033;28;20247;-67
2022/08/14 07:53:48;;;;;;;11.93;9.23;;;24.30;99.90;;;;;;5027032;28;20203;-67
2022/08/14 07:56:16;;;;;;;11.23;9.85;;;24.40;99.90;;;;;;5027012;28;20199;-67
2022/08/14 07:58:43;;;;;;;11.20;9.63;;;24.40;99.90;;;;;;5024028;28;20810;-67
2022/08/14 08:01:11;;;;;;;10.70;9.05;;;24.40;99.90;;;;;;5019336;28;20205;-67
2022/08/14 08:03:39;;;;;;;12.30;9.85;;;24.60;99.90;;;;;;5022618;28;20686;-67
2022/08/14 08:06:07;;;;;;;10.90;9.68;;;24.60;99.90;;;;;;5019747;28;20200;-67
2022/08/14 08:08:33;;;;;;;11.32;9.40;;;24.70;99.90;;;;;;5023838;28;20204;-67
2022/08/14 08:11:02;;;;;;;12.63;9.10;;;24.70;99.90;;;;;;5029558;28;20243;-67
2022/08/14 08:13:32;;;;;;;10.57;8.95;;;24.70;99.90;;;;;;5025285;28;20203;-67
2022/08/14 08:16:00;;;;;;;11.52;9.50;;;24.90;99.90;;;;;;5026052;28;20559;-67
2022/08/14 08:18:28;;;;;;;13.00;9.35;;;25.00;99.90;;;;;;5031294;28;20737;-67
2022/08/14 08:20:55;;;;;;;10.88;9.77;;;25.30;99.90;;;;;;5023409;28;20204;-67
2022/08/14 08:23:24;;;;;;;10.43;9.32;;;25.20;99.90;;;;;;5019057;28;20658;-67
2022/08/14 08:25:52;;;;;;;10.38;9.38;;;25.30;99.90;;;;;;5020146;28;20662;-67
2022/08/14 08:28:22;;;;;;;10.23;9.13;;;25.50;99.90;;;;;;5020808;28;20214;-67
2022/08/14 08:30:51;;;;;;;11.05;9.98;;;25.50;99.90;;;;;;5020940;28;20250;-67
2022/08/14 08:33:19;;;;;;;10.93;9.82;;;25.50;99.90;;;;;;5029958;28;20667;-67
2022/08/14 08:35:47;;;;;;;11.10;9.75;;;25.50;97.90;;;;;;5023321;28;20207;-67
2022/08/14 08:38:16;;;;;;;11.32;9.25;;;25.60;99.90;;;;;;5025737;28;20204;-67
2022/08/14 08:40:45;;;;;;;10.60;9.57;;;25.60;97.50;;;;;;5022255;28;20815;-67
2022/08/14 08:43:20;;;;;;;11.95;9.75;;;25.60;95.40;;;;;;5026123;28;20290;-67
2022/08/14 08:45:54;;;;;;;11.25;9.48;;;25.50;99.70;;;;;;5028935;28;20257;-67
2022/08/14 08:48:21;;;;;;;10.25;9.25;;;25.60;95.40;;;;;;5025397;28;20212;-67
2022/08/14 08:50:48;;;;;;;10.65;9.32;;;25.70;95.60;;;;;;5025793;28;20626;-67
2022/08/14 08:53:15;;;;;;;10.77;9.07;;;25.80;94.20;;;;;;5022979;28;20659;-67
2022/08/14 08:55:45;;;;;;;11.65;9.60;;;25.90;94.60;;;;;;5028798;28;20207;-67
2022/08/14 08:58:13;;;;;;;10.00;9.00;;;26.00;93.30;;;;;;5018616;28;20200;-67
2022/08/14 09:00:42;;;;;;;9.95;8.90;;;26.10;93.60;;;;;;5021613;28;20211;-67
2022/08/14 09:03:14;;;;;;;9.68;8.65;;;26.20;86.20;;;;;;5024382;28;20560;-67
2022/08/14 09:05:50;;;;;;;10.85;8.75;;;26.20;87.90;;;;;;5018310;28;20222;-67
2022/08/14 09:08:19;;;;;;;10.95;8.35;;;26.40;84.00;;;;;;5020627;28;20219;-67
2022/08/14 09:10:46;;;;;;;10.10;9.10;;;26.60;77.50;;;;;;5026742;28;20246;-67
2022/08/14 09:13:14;;;;;;;9.18;8.30;;;26.80;74.30;;;;;;5029512;28;20200;-68
2022/08/14 09:15:43;;;;;;;8.77;7.88;;;27.30;69.80;;;;;;5030422;28;20203;-67
2022/08/14 09:18:13;;;;;;;10.43;8.05;;;27.50;55.50;;;;;;5027892;28;20208;-67
2022/08/14 09:20:41;;;;;;;9.23;8.05;;;27.20;53.60;;;;;;5023924;28;20218;-67
2022/08/14 09:23:09;;;;;;;8.10;7.25;;;27.30;51.70;;;;;;5028628;28;20203;-67
2022/08/14 09:25:36;;;;;;;9.00;8.05;;;27.70;54.30;;;;;;5023826;28;20192;-67
2022/08/14 09:28:04;;;;;;;9.43;7.47;;;27.90;51.30;;;;;;5027923;28;20665;-67
2022/08/14 09:30:32;;;;;;;8.88;7.30;;;27.90;43.50;;;;;;5023718;28;20685;-67
2022/08/14 09:33:18;;;;;;;9.00;7.47;;;28.20;44.00;;;;;;5027501;28;20207;-67
2022/08/14 09:36:01;;;;;;;9.30;7.97;;;28.30;42.10;;;;;;5028840;28;20204;-67
2022/08/14 09:38:37;;;;;;;9.40;6.90;;;28.00;43.60;;;;;;5026117;28;20272;-67
2022/08/14 09:41:13;;;;;;;8.85;7.53;;;28.40;42.40;;;;;;5025173;28;20198;-67
2022/08/14 09:43:47;;;;;;;9.68;7.88;;;28.10;41.90;;;;;;5027051;28;20563;-67
2022/08/14 09:46:15;;;;;;;9.00;8.10;;;28.40;42.50;;;;;;5023751;28;20226;-67
2022/08/14 09:48:44;;;;;;;8.60;7.70;;;28.50;40.40;;;;;;5025396;28;20651;-67
2022/08/14 09:51:23;;;;;;;10.60;7.32;;;28.80;41.70;;;;;;5021833;28;20579;-67
2022/08/14 09:54:01;;;;;;;9.52;7.45;;;28.70;39.60;;;;;;5020917;28;20222;-67
2022/08/14 09:56:28;;;;;;;8.82;7.70;;;29.50;35.20;;;;;;5021043;28;20223;-67
2022/08/14 09:58:59;;;;;;;9.07;8.18;;;28.90;34.90;;;;;;5024645;28;20208;-68
2022/08/14 10:01:36;;;;;;;8.52;7.63;;;29.00;35.00;;;;;;5025553;28;20304;-68
2022/08/14 10:04:17;;;;;;;10.10;7.97;;;29.00;35.50;;;;;;5027049;28;20684;-67
2022/08/14 10:06:45;;;;;;;9.70;7.65;;;29.00;36.30;;;;;;5019843;28;20258;-67
2022/08/14 10:09:12;;;;;;;54.13;10.98;;;29.40;33.80;;;;;;5030113;28;20196;-67
2022/08/14 10:11:42;;;;;;;9.95;7.13;;;29.10;33.00;;;;;;5020813;28;20226;-67
2022/08/14 10:14:15;;;;;;;9.25;8.07;;;29.30;30.00;;;;;;5031491;28;20210;-67
2022/08/14 10:16:44;;;;;;;12.00;7.93;;;29.30;31.40;;;;;;5024456;28;20203;-67
2022/08/14 10:19:14;;;;;;;9.10;8.18;;;29.20;29.70;;;;;;5030093;28;20650;-67
2022/08/14 10:21:45;;;;;;;9.40;7.97;;;29.30;31.50;;;;;;5026298;28;20662;-67
2022/08/14 10:24:24;;;;;;;10.18;7.93;;;29.40;30.80;;;;;;5022962;28;20212;-67
2022/08/14 10:26:54;;;;;;;8.40;7.60;;;29.60;30.00;;;;;;5021164;28;20573;-67
2022/08/14 10:29:31;;;;;;;8.15;7.22;;;29.90;28.60;;;;;;5025942;28;20685;-67
2022/08/14 10:31:59;;;;;;;8.23;7.43;;;29.60;29.40;;;;;;5026003;28;20242;-67
2022/08/14 10:34:32;;;;;;;8.10;6.90;;;30.00;28.60;;;;;;5022743;28;20204;-67
2022/08/14 10:37:06;;;;;;;8.35;7.47;;;30.70;25.80;;;;;;5025743;28;20226;-68
2022/08/14 10:39:34;;;;;;;8.25;6.95;;;31.20;24.10;;;;;;5025918;28;20239;-67
2022/08/14 10:42:04;;;;;;;9.45;7.25;;;30.70;26.50;;;;;;5029511;28;20212;-67
2022/08/14 10:44:35;;;;;;;11.65;7.43;;;31.30;22.40;;;;;;5023134;28;20249;-68
2022/08/14 10:47:06;;;;;;;8.73;7.75;;;31.00;21.80;;;;;;5028293;28;20215;-67
2022/08/14 10:49:35;;;;;;;9.07;7.55;;;30.40;22.50;;;;;;5023160;28;20291;-67
2022/08/14 10:52:06;;;;;;;9.45;7.70;;;30.00;24.10;;;;;;5028772;28;20229;-67
2022/08/14 10:54:38;;;;;;;8.38;7.55;;;30.10;24.50;;;;;;5028257;28;20195;-67
2022/08/14 10:57:26;;;;;;;7.60;6.90;;;29.90;23.60;;;;;;5027189;28;20200;-67
2022/08/14 10:59:55;;;;;;;8.35;7.40;;;30.00;24.50;;;;;;5027063;28;20207;-67
2022/08/14 11:02:28;;;;;;;8.23;7.38;;;31.10;21.70;;;;;;5021269;28;20203;-67
2022/08/14 11:05:07;;;;;;;8.32;7.28;;;30.90;21.90;;;;;;5025166;28;20205;-67
2022/08/14 11:07:38;;;;;;;9.20;7.25;;;30.70;22.70;;;;;;5022445;28;20318;-67
2022/08/14 11:10:08;;;;;;;8.27;7.47;;;30.80;22.40;;;;;;5028200;28;20211;-67
2022/08/14 11:12:46;;;;;;;10.85;7.28;;;31.40;21.70;;;;;;5027418;28;20238;-67
2022/08/14 11:15:16;;;;;;;8.98;7.55;;;31.20;21.60;;;;;;5026059;28;20203;-68
2022/08/14 11:17:46;;;;;;;10.32;7.55;;;31.30;21.60;;;;;;5018467;28;20212;-68
2022/08/14 11:20:16;;;;;;;9.55;7.55;;;31.70;18.30;;;;;;5029196;28;20200;-69
2022/08/14 11:22:44;;;;;;;8.95;7.32;;;31.00;18.10;;;;;;5030750;28;20562;-69
2022/08/14 11:25:13;;;;;;;10.60;7.75;;;30.90;20.90;;;;;;5024653;28;20211;-69
2022/08/14 11:27:42;;;;;;;8.23;7.43;;;30.90;19.30;;;;;;5029938;28;20400;-69
2022/08/14 11:30:12;;;;;;;7.97;7.10;;;31.10;20.50;;;;;;5029256;28;20199;-69
2022/08/14 11:32:41;;;;;;;8.80;7.70;;;30.60;19.80;;;;;;5030740;28;20199;-69
2022/08/14 11:35:15;;;;;;;8.57;7.65;;;30.70;19.30;;;;;;5027923;28;20199;-69
2022/08/14 11:37:55;;;;;;;8.68;7.78;;;31.50;19.30;;;;;;5025137;28;20221;-69
2022/08/14 11:40:24;;;;;;;9.05;7.68;;;31.30;17.70;;;;;;5030664;28;20204;-69
2022/08/14 11:42:54;;;;;;;8.45;7.20;;;30.80;19.10;;;;;;5030881;28;20291;-69
2022/08/14 11:45:23;;;;;;;9.48;7.93;;;31.90;16.60;;;;;;5027663;28;20200;-71
2022/08/14 11:47:51;;;;;;;8.27;7.00;;;32.00;16.70;;;;;;5027837;28;20211;-71
2022/08/14 11:50:23;;;;;;;10.07;8.10;;;32.30;15.80;;;;;;5028926;28;20208;-70
2022/08/14 11:52:50;;;;;;;9.38;7.93;;;32.20;14.90;;;;;;5027596;28;20211;-71
2022/08/14 11:55:17;;;;;;;9.13;8.07;;;32.40;14.60;;;;;;5032989;28;20207;-71
2022/08/14 11:57:46;;;;;;;9.13;7.93;;;31.90;14.30;;;;;;5031458;28;20207;-70
2022/08/14 12:00:15;;;;;;;7.90;7.10;;;31.50;15.50;;;;;;5026979;28;20716;-70
2022/08/14 12:02:53;;;;;;;8.57;7.00;;;31.50;15.50;;;;;;5028770;28;20192;-70
2022/08/14 12:05:38;;;;;;;7.93;7.13;;;31.60;15.50;;;;;;5027681;28;20208;-70
2022/08/14 12:08:06;;;;;;;9.73;7.45;;;31.40;15.40;;;;;;5026226;28;20214;-70
2022/08/14 12:10:34;;;;;;;8.55;7.35;;;30.50;16.90;;;;;;5019449;28;20204;-70
2022/08/14 12:13:11;;;;;;;9.57;8.20;;;29.70;19.00;;;;;;5030542;28;20207;-70
2022/08/14 12:15:38;;;;;;;10.52;7.82;;;29.80;20.10;;;;;;5028281;28;20624;-71
2022/08/14 12:18:05;;;;;;;8.98;7.90;;;29.80;18.90;;;;;;5021634;28;20643;-71
2022/08/14 12:20:36;;;;;;;9.73;8.45;;;30.10;19.10;;;;;;5024848;28;20204;-70
2022/08/14 12:23:04;;;;;;;10.48;7.80;;;30.20;18.50;;;;;;5028588;28;20560;-69
2022/08/14 12:25:32;;;;;;;8.90;7.97;;;30.40;19.10;;;;;;5029147;28;20673;-71
2022/08/14 12:28:04;;;;;;;11.93;7.78;;;30.50;17.70;;;;;;5027290;28;20200;-76
2022/08/14 12:30:33;;;;;;;10.93;8.32;;;30.50;17.70;;;;;;5030057;28;20246;-76
2022/08/14 12:33:02;;;;;;;9.48;7.80;;;30.80;16.90;;;;;;5030920;28;20873;-76
2022/08/14 12:35:42;;;;;;;9.70;7.47;;;31.20;16.50;;;;;;5026763;28;20622;-76
2022/08/14 12:38:10;;;;;;;9.40;8.48;;;31.30;15.80;;;;;;5026259;28;20286;-77
2022/08/14 12:40:46;;;;;;;10.05;7.53;;;32.00;13.90;;;;;;5028117;28;20203;-77
2022/08/14 12:43:13;;;;;;;8.27;7.55;;;31.40;14.20;;;;;;5028383;28;20199;-76
2022/08/14 12:45:41;;;;;;;9.15;8.25;;;31.00;13.90;;;;;;5029302;28;20200;-76
2022/08/14 12:48:08;;;;;;;11.38;8.10;;;30.50;15.30;;;;;;5028915;28;20199;-76
2022/08/14 12:50:37;;;;;;;9.38;8.02;;;31.00;15.70;;;;;;5029542;28;20208;-76
2022/08/14 12:53:06;;;;;;;8.65;7.63;;;31.20;13.20;;;;;;5027894;28;20204;-76
2022/08/14 12:55:34;;;;;;;10.82;8.00;;;31.00;14.20;;;;;;5026158;28;20227;-76
2022/08/14 12:58:04;;;;;;;10.50;8.05;;;30.90;15.10;;;;;;5020604;28;20200;-77
2022/08/14 13:00:33;;;;;;;9.20;8.23;;;30.30;16.50;;;;;;5030617;28;20214;-80